Time;durP1;ratioP1;P1;durP2;ratioP2;P2;SDS_P1;SDS_P2;PMS_P1;PMS_P2;Temp;Humidity;BMP_temperature;BMP_pressure;BME280_temperature;BME280_humidity;BME280_pressure;Samples;Min_cycle;Max_cycle;Signal;HPM_P1;HPM_P2
2023/12/19 00:01:24;;;;;;;;;;;;;;;12.45;98.67;101367.00;106217;1255;61243;-86
2023/12/19 00:03:53;;;;;;;;;;;;;;;12.44;98.94;101366.12;106128;1254;73373;-85
2023/12/19 00:06:33;;;;;;;;;;;;;;;12.26;99.71;101373.98;106132;1253;68380;-85
2023/12/19 00:09:13;;;;;;;;;;;;;;;12.11;100.00;101372.56;106289;1253;71512;-85
2023/12/19 00:11:52;;;;;;;;;;;;;;;11.95;100.00;101370.95;106281;1256;61923;-85
2023/12/19 00:14:20;;;;;;;;;;;;;;;11.78;100.00;101371.00;106210;1253;61157;-85
2023/12/19 00:16:58;;;;;;;;;;;;;;;11.73;100.00;101372.45;106212;1260;74408;-85
2023/12/19 00:19:32;;;;;;;;;;;;;;;11.57;100.00;101371.27;106311;1254;68513;-85
2023/12/19 00:22:05;;;;;;;;;;;;;;;11.76;100.00;101371.09;106229;1258;72639;-86
2023/12/19 00:24:33;;;;;;;;;;;;;;;11.64;100.00;101370.68;106342;1253;61257;-86
2023/12/19 00:27:07;;;;;;;;;;;;;;;11.61;100.00;101371.44;106223;1256;61187;-85
2023/12/19 00:29:40;;;;;;;;;;;;;;;11.88;100.00;101374.31;106177;1253;74637;-86
2023/12/19 04:32:07;;;;;;;;;;;;;;;12.67;95.51;101318.63;106160;1259;72709;-86
2023/12/19 04:34:46;;;;;;;;;;;;;;;12.63;96.03;101328.71;106145;1261;61338;-85
2023/12/19 04:37:20;;;;;;;;;;;;;;;12.66;95.75;101323.95;106317;1256;61835;-86
2023/12/19 04:39:54;;;;;;;;;;;;;;;12.53;96.31;101320.63;106314;1254;74589;-85
2023/12/19 04:42:34;;;;;;;;;;;;;;;12.26;98.77;101320.73;106219;1258;67378;-85
2023/12/19 04:45:14;;;;;;;;;;;;;;;12.27;99.08;101317.44;106242;1259;71386;-85
2023/12/19 04:47:53;;;;;;;;;;;;;;;12.31;98.68;101314.83;106133;1260;61286;-85
2023/12/19 04:50:34;;;;;;;;;;;;;;;12.42;97.78;101312.49;106102;1254;61462;-85
2023/12/19 04:53:13;;;;;;;;;;;;;;;12.42;97.71;101307.68;106144;1254;73436;-85
2023/12/19 04:55:53;;;;;;;;;;;;;;;12.46;97.32;101306.26;106151;1258;68400;-86
2023/12/19 04:58:33;;;;;;;;;;;;;;;12.44;97.17;101309.60;106226;1259;72761;-85
2023/12/19 05:01:12;;;;;;;;;;;;;;;12.48;96.92;101308.39;106344;1260;61357;-85
2023/12/19 05:03:50;;;;;;;;;;;;;;;12.63;96.00;101306.95;106211;1260;61247;-85
2023/12/19 05:06:24;;;;;;;;;;;;;;;12.45;96.99;101313.05;106328;1254;74611;-85
2023/12/19 05:08:58;;;;;;;;;;;;;;;12.31;98.34;101318.16;106202;1260;67324;-86
2023/12/19 05:11:31;;;;;;;;;;;;;;;12.33;98.37;101321.19;106201;1257;71553;-86
2023/12/19 05:14:05;;;;;;;;;;;;;;;12.34;98.01;101323.93;106196;1256;61652;-85
2023/12/19 05:16:39;;;;;;;;;;;;;;;12.44;97.53;101321.49;106230;1260;61231;-86
2023/12/19 05:19:12;;;;;;;;;;;;;;;12.62;96.08;101317.08;106194;1256;74706;-85
2023/12/19 05:21:46;;;;;;;;;;;;;;;12.69;95.20;101315.12;106467;1257;68903;-86
2023/12/19 05:24:20;;;;;;;;;;;;;;;12.72;94.75;101311.23;109067;1254;71392;-87
2023/12/19 05:26:57;;;;;;;;;;;;;;;12.60;95.47;101302.92;107247;1260;61390;-86
2023/12/19 05:29:33;;;;;;;;;;;;;;;12.50;95.96;101290.48;106672;1254;61298;-86
2023/12/19 05:32:07;;;;;;;;;;;;;;;12.62;95.16;101286.76;106245;1258;74710;-85
2023/12/19 05:34:41;;;;;;;;;;;;;;;12.67;94.68;101274.92;106928;1259;68519;-86
2023/12/19 05:37:14;;;;;;;;;;;;;;;12.67;94.49;101270.70;106541;1257;71123;-86
2023/12/19 05:39:49;;;;;;;;;;;;;;;12.63;94.84;101278.80;106227;1253;61333;-86
2023/12/19 05:42:28;;;;;;;;;;;;;;;12.74;94.01;101288.73;106271;1256;61342;-85
2023/12/19 05:44:56;;;;;;;;;;;;;;;12.60;94.89;101287.20;106423;1257;73396;-85
2023/12/19 05:47:23;;;;;;;;;;;;;;;12.68;94.70;101289.13;106265;1254;68472;-86
2023/12/19 05:49:57;;;;;;;;;;;;;;;12.77;93.87;101291.27;106169;1252;71203;-86
2023/12/19 05:52:31;;;;;;;;;;;;;;;12.41;96.09;101293.36;106204;1256;61139;-86
2023/12/19 05:55:07;;;;;;;;;;;;;;;12.19;97.99;101308.15;106313;1254;61202;-86
2023/12/19 05:57:40;;;;;;;;;;;;;;;12.15;98.76;101311.65;106291;1255;74644;-86
2023/12/19 06:00:15;;;;;;;;;;;;;;;12.07;99.49;101315.35;106185;1254;68346;-86
2023/12/19 06:02:49;;;;;;;;;;;;;;;12.01;99.92;101322.52;106312;1254;71991;-85
2023/12/19 06:05:24;;;;;;;;;;;;;;;12.03;99.84;101321.74;106319;1257;61207;-86
2023/12/19 06:08:00;;;;;;;;;;;;;;;12.14;99.14;101325.08;106241;1258;61387;-85
2023/12/19 06:10:34;;;;;;;;;;;;;;;12.18;98.82;101333.14;106265;1259;72787;-86
2023/12/19 06:13:08;;;;;;;;;;;;;;;12.16;99.01;101335.89;106259;1258;68675;-86
2023/12/19 06:15:42;;;;;;;;;;;;;;;12.13;99.23;101333.34;106394;1259;72698;-85
2023/12/19 06:18:17;;;;;;;;;;;;;;;12.15;99.17;101326.13;106285;1253;61680;-85
2023/12/19 06:20:51;;;;;;;;;;;;;;;12.23;98.45;101324.34;106261;1258;61309;-85
2023/12/19 06:23:24;;;;;;;;;;;;;;;12.28;98.01;101322.86;106235;1260;74632;-85
2023/12/19 06:25:58;;;;;;;;;;;;;;;12.23;98.36;101322.52;106095;1254;68428;-85
2023/12/19 06:28:32;;;;;;;;;;;;;;;12.25;98.16;101311.14;106449;1260;72807;-85
2023/12/19 06:31:06;;;;;;;;;;;;;;;12.27;98.36;101307.63;106246;1257;61244;-85
2023/12/19 06:33:46;;;;;;;;;;;;;;;12.24;98.59;101309.00;106159;1260;61140;-86
2023/12/19 06:36:37;;;;;;;;;;;;;;;12.14;99.25;101306.95;106211;1253;73751;-86
2023/12/19 06:39:17;;;;;;;;;;;;;;;12.09;99.84;101311.08;106094;1260;69058;-86
2023/12/19 06:41:57;;;;;;;;;;;;;;;11.97;100.00;101314.27;106197;1259;71409;-85
2023/12/19 06:44:37;;;;;;;;;;;;;;;11.76;100.00;101311.84;106228;1253;61266;-85
2023/12/19 06:47:17;;;;;;;;;;;;;;;11.91;100.00;101314.13;106187;1255;59992;-85
2023/12/19 06:49:57;;;;;;;;;;;;;;;11.94;100.00;101314.27;106237;1254;74672;-86
2023/12/19 06:52:36;;;;;;;;;;;;;;;12.16;100.00;101313.95;106205;1254;68691;-86
2023/12/19 06:55:16;;;;;;;;;;;;;;;12.19;100.00;101308.81;106389;1254;71612;-86
2023/12/19 06:57:57;;;;;;;;;;;;;;;11.97;100.00;101296.70;106177;1258;61220;-86
2023/12/19 07:00:35;;;;;;;;;;;;;;;11.97;100.00;101291.65;106130;1254;61357;-86
2023/12/19 07:03:08;;;;;;;;;;;;;;;11.97;100.00;101292.31;106283;1255;74659;-86
2023/12/19 07:05:42;;;;;;;;;;;;;;;12.01;100.00;101295.23;106335;1254;68857;-86
2023/12/19 07:08:16;;;;;;;;;;;;;;;12.18;100.00;101281.91;106222;1259;71516;-85
2023/12/19 07:10:49;;;;;;;;;;;;;;;12.16;100.00;101282.01;106008;1260;61288;-86
2023/12/19 07:13:17;;;;;;;;;;;;;;;12.25;100.00;101282.26;106230;1259;61148;-86
2023/12/19 07:15:51;;;;;;;;;;;;;;;12.25;100.00;101289.49;106121;1254;73407;-86
2023/12/19 07:18:24;;;;;;;;;;;;;;;12.22;100.00;101281.21;106129;1255;67251;-86
2023/12/19 07:20:58;;;;;;;;;;;;;;;12.33;100.00;101278.88;106146;1261;71432;-85
2023/12/19 07:23:26;;;;;;;;;;;;;;;12.34;99.91;101275.20;106179;1258;61249;-86
2023/12/19 07:26:00;;;;;;;;;;;;;;;12.28;100.00;101277.00;106463;1253;61265;-86
2023/12/19 07:28:39;;;;;;;;;;;;;;;12.47;99.84;101274.95;106378;1254;73374;-86
2023/12/19 07:31:45;;;;;;;;;;;;;;;12.47;99.80;101272.15;106436;1260;69272;-87
2023/12/19 07:34:25;;;;;;;;;;;;;;;12.37;100.00;101267.86;106506;1254;72809;-85
2023/12/19 07:37:05;;;;;;;;;;;;;;;12.15;100.00;101271.44;106471;1254;61244;-85
2023/12/19 07:39:46;;;;;;;;;;;;;;;12.16;100.00;101267.98;106459;1253;61187;-87
2023/12/19 07:42:26;;;;;;;;;;;;;;;12.19;100.00;101261.20;106626;1259;74702;-85
2023/12/19 07:44:59;;;;;;;;;;;;;;;12.16;100.00;101257.68;106536;1260;67938;-85
2023/12/19 07:47:33;;;;;;;;;;;;;;;12.13;100.00;101256.19;106538;1254;72478;-86
2023/12/19 07:50:13;;;;;;;;;;;;;;;12.24;100.00;101250.86;106552;1255;61218;-86
2023/12/19 07:52:52;;;;;;;;;;;;;;;12.26;100.00;101254.41;106488;1260;61171;-87
2023/12/19 07:55:26;;;;;;;;;;;;;;;12.18;100.00;101255.88;106460;1254;75091;-85
2023/12/19 07:58:00;;;;;;;;;;;;;;;12.14;100.00;101249.95;106584;1254;68539;-85
2023/12/19 08:00:39;;;;;;;;;;;;;;;12.27;100.00;101248.39;106805;1254;72707;-85
2023/12/19 08:03:15;;;;;;;;;;;;;;;12.35;100.00;101248.67;106432;1253;62070;-85
2023/12/19 08:05:50;;;;;;;;;;;;;;;12.22;100.00;101246.46;106485;1253;61226;-85
2023/12/19 08:08:24;;;;;;;;;;;;;;;12.10;100.00;101242.87;106514;1254;74727;-85
2023/12/19 08:10:58;;;;;;;;;;;;;;;12.01;100.00;101230.80;106583;1253;66123;-85
2023/12/19 08:13:31;;;;;;;;;;;;;;;12.07;100.00;101220.45;106458;1254;72632;-85
2023/12/19 08:16:06;;;;;;;;;;;;;;;12.10;100.00;101224.03;106428;1258;61979;-85
2023/12/19 08:18:39;;;;;;;;;;;;;;;12.09;100.00;101215.30;106510;1255;61261;-85
2023/12/19 08:21:19;;;;;;;;;;;;;;;12.11;100.00;101212.91;106435;1254;230121;-85
2023/12/19 08:23:59;;;;;;;;;;;;;;;12.14;100.00;101218.84;106279;1258;67292;-84
2023/12/19 08:26:33;;;;;;;;;;;;;;;12.12;100.00;101225.56;106625;1253;72446;-85
2023/12/19 08:29:01;;;;;;;;;;;;;;;12.06;100.00;101230.86;106485;1253;61219;-86
2023/12/19 08:31:34;;;;;;;;;;;;;;;12.10;100.00;101230.83;106482;1253;61128;-86
2023/12/19 08:34:08;;;;;;;;;;;;;;;12.08;100.00;101239.09;106443;1258;73363;-86
2023/12/19 08:36:38;;;;;;;;;;;;;;;12.00;100.00;101248.05;106332;1253;68545;-86
2023/12/19 08:39:13;;;;;;;;;;;;;;;12.00;100.00;101250.85;106306;1254;72633;-88
2023/12/19 08:41:49;;;;;;;;;;;;;;;11.99;100.00;101248.38;106329;1253;61290;-85
2023/12/19 08:44:29;;;;;;;;;;;;;;;12.15;100.00;101238.55;106246;1254;61233;-87
2023/12/19 08:47:05;;;;;;;;;;;;;;;12.16;100.00;101233.14;106574;1258;74702;-86
2023/12/19 08:49:52;;;;;;;;;;;;;;;12.24;100.00;101226.30;106311;1253;70085;-85
2023/12/19 08:52:32;;;;;;;;;;;;;;;12.08;100.00;101215.02;106349;1254;71415;-85
2023/12/19 08:55:12;;;;;;;;;;;;;;;12.10;100.00;101211.69;106318;1257;61976;-85
2023/12/19 08:57:40;;;;;;;;;;;;;;;11.93;100.00;101192.48;106484;1254;59246;-86
2023/12/19 09:00:21;;;;;;;;;;;;;;;11.81;100.00;101183.23;106250;1254;73471;-86
2023/12/19 09:03:01;;;;;;;;;;;;;;;11.72;100.00;101170.61;106348;1253;68380;-86
2023/12/19 09:05:41;;;;;;;;;;;;;;;11.73;100.00;101163.70;106450;1257;72520;-86
2023/12/19 09:08:09;;;;;;;;;;;;;;;11.84;100.00;101167.09;106260;1259;61270;-87
2023/12/19 09:10:43;;;;;;;;;;;;;;;12.04;100.00;101161.83;106332;1254;61298;-84
2023/12/19 09:13:20;;;;;;;;;;;;;;;12.14;100.00;101151.65;106258;1253;74634;-85
2023/12/19 09:15:53;;;;;;;;;;;;;;;12.22;100.00;101150.99;106256;1259;67217;-87
2023/12/19 09:18:27;;;;;;;;;;;;;;;12.27;100.00;101163.29;106293;1256;71412;-85
2023/12/19 09:21:01;;;;;;;;;;;;;;;12.17;100.00;101153.73;106228;1254;61305;-84
2023/12/19 09:23:41;;;;;;;;;;;;;;;12.18;100.00;101152.42;106346;1254;61354;-85
2023/12/19 09:26:15;;;;;;;;;;;;;;;12.27;100.00;101141.75;106514;1253;74745;-86
2023/12/19 09:28:42;;;;;;;;;;;;;;;12.23;100.00;101144.42;106782;1259;68757;-86
2023/12/19 09:31:16;;;;;;;;;;;;;;;12.30;100.00;101123.71;106459;1253;74437;-86
2023/12/19 09:33:56;;;;;;;;;;;;;;;12.42;100.00;101118.33;106618;1254;61193;-86
2023/12/19 09:36:30;;;;;;;;;;;;;;;12.62;100.00;101108.70;106464;1253;61776;-86
2023/12/19 09:39:04;;;;;;;;;;;;;;;12.70;100.00;101101.02;106274;1258;76819;-86
2023/12/19 09:41:38;;;;;;;;;;;;;;;12.80;99.95;101094.19;106288;1254;68402;-86
2023/12/19 09:44:18;;;;;;;;;;;;;;;12.68;100.00;101090.05;106366;1254;72774;-86
2023/12/19 09:46:58;;;;;;;;;;;;;;;12.76;100.00;101087.62;106152;1254;62197;-86
2023/12/19 09:49:39;;;;;;;;;;;;;;;12.65;100.00;101077.66;106406;1253;61318;-86
2023/12/19 09:52:19;;;;;;;;;;;;;;;12.62;100.00;101075.04;106308;1254;77008;-87
2023/12/19 09:55:02;;;;;;;;;;;;;;;12.61;100.00;101076.36;106358;1254;68410;-87
2023/12/19 09:57:36;;;;;;;;;;;;;;;12.78;99.57;101074.50;106208;1254;75360;-86
2023/12/19 10:00:10;;;;;;;;;;;;;;;12.65;99.87;101069.51;106211;1253;61207;-86
2023/12/19 10:02:52;;;;;;;;;;;;;;;12.57;100.00;101065.52;106078;1254;61907;-86
2023/12/19 10:05:32;;;;;;;;;;;;;;;12.65;99.62;101072.73;106329;1258;76629;-86
2023/12/19 10:08:07;;;;;;;;;;;;;;;12.62;99.42;101067.14;106337;1256;69266;-86
2023/12/19 10:10:59;;;;;;;;;;;;;;;12.57;99.15;101068.42;106359;1254;72607;-86
2023/12/19 10:13:38;;;;;;;;;;;;;;;12.41;99.94;101070.92;106208;1256;61281;-86
2023/12/19 10:16:17;;;;;;;;;;;;;;;12.38;99.98;101071.95;106333;1253;62177;-85
2023/12/19 10:19:13;;;;;;;;;;;;;;;12.34;100.00;101072.17;106357;1253;77176;-85
2023/12/19 10:21:41;;;;;;;;;;;;;;;12.29;100.00;101067.92;106339;1253;70790;-85
2023/12/19 10:24:21;;;;;;;;;;;;;;;12.32;100.00;101069.89;106316;1253;74578;-87
2023/12/19 10:26:49;;;;;;;;;;;;;;;12.35;100.00;101064.23;106407;1253;61328;-85
2023/12/19 10:29:22;;;;;;;;;;;;;;;12.42;100.00;101046.84;106285;1259;61809;-85
2023/12/19 10:31:55;;;;;;;;;;;;;;;12.49;99.68;101044.04;106446;1253;76687;-86
2023/12/19 10:34:29;;;;;;;;;;;;;;;12.62;98.39;101049.92;106509;1253;67716;-85
2023/12/19 10:37:06;;;;;;;;;;;;;;;12.94;96.34;101041.69;106937;1258;72561;-86
2023/12/19 10:39:40;;;;;;;;;;;;;;;13.10;94.10;101041.67;106074;1254;61831;-85
2023/12/19 10:42:15;;;;;;;;;;;;;;;13.63;89.84;101039.04;106453;1253;61207;-85
2023/12/19 10:44:42;;;;;;;;;;;;;;;13.45;90.60;101039.77;106298;1253;74643;-86
2023/12/19 10:47:16;;;;;;;;;;;;;;;13.15;92.05;101041.83;106297;1259;69317;-86
2023/12/19 10:49:44;;;;;;;;;;;;;;;13.08;93.02;101034.02;106190;1254;72888;-86
2023/12/19 10:52:18;;;;;;;;;;;;;;;13.00;93.64;101021.64;106236;1253;61271;-85
2023/12/19 10:54:51;;;;;;;;;;;;;;;12.97;94.26;101011.41;106284;1253;62102;-87
2023/12/19 10:57:25;;;;;;;;;;;;;;;12.96;94.15;100993.86;106377;1253;75423;-85
2023/12/19 11:00:13;;;;;;;;;;;;;;;13.01;93.76;100988.45;106087;1254;72617;-85
2023/12/19 11:02:51;;;;;;;;;;;;;;;12.92;94.75;100985.15;106224;1256;75086;-85
2023/12/19 11:05:25;;;;;;;;;;;;;;;12.88;95.95;100974.80;106255;1254;61999;-85
2023/12/19 11:08:02;;;;;;;;;;;;;;;12.93;95.70;100970.71;106263;1254;61177;-86
2023/12/19 11:10:39;;;;;;;;;;;;;;;12.95;95.16;100973.72;106135;1255;75293;-85
2023/12/19 11:13:13;;;;;;;;;;;;;;;12.93;95.37;100969.07;106286;1253;70246;-86
2023/12/19 11:16:04;;;;;;;;;;;;;;;13.09;93.96;100963.88;106190;1254;75002;-86
2023/12/19 11:18:40;;;;;;;;;;;;;;;13.32;92.07;100955.64;106059;1254;62801;-86
2023/12/19 11:21:17;;;;;;;;;;;;;;;13.45;90.73;100954.06;106290;1253;61196;-86
2023/12/19 11:24:00;;;;;;;;;;;;;;;13.43;90.82;100945.29;106141;1254;76558;-85
2023/12/19 11:26:34;;;;;;;;;;;;;;;13.42;90.69;100942.66;106314;1257;70894;-86
2023/12/19 11:29:14;;;;;;;;;;;;;;;13.49;89.74;100937.83;106192;1254;74937;-85
2023/12/19 11:31:54;;;;;;;;;;;;;;;13.60;88.61;100933.67;106268;1253;62487;-84
2023/12/19 11:34:27;;;;;;;;;;;;;;;13.70;87.55;100929.24;106460;1255;62371;-84
2023/12/19 11:37:08;;;;;;;;;;;;;;;13.70;87.07;100937.98;106241;1254;76025;-84
2023/12/19 11:39:48;;;;;;;;;;;;;;;13.63;87.42;100938.43;106103;1256;68382;-85
2023/12/19 11:42:43;;;;;;;;;;;;;;;13.55;88.01;100933.89;106214;1257;72672;-85
2023/12/19 11:45:17;;;;;;;;;;;;;;;13.61;87.91;100915.61;106188;1253;61675;-84
2023/12/19 11:47:52;;;;;;;;;;;;;;;13.51;88.71;100913.88;106342;1253;61164;-85
2023/12/19 11:50:46;;;;;;;;;;;;;;;13.45;89.32;100906.40;106192;1253;77679;-86
2023/12/19 11:53:23;;;;;;;;;;;;;;;13.52;89.35;100900.67;106265;1253;70406;-85
2023/12/19 11:55:56;;;;;;;;;;;;;;;13.54;89.04;100899.80;106266;1258;74842;-85
2023/12/19 11:58:26;;;;;;;;;;;;;;;13.56;89.30;100899.88;106233;1254;61362;-85
2023/12/19 12:01:08;;;;;;;;;;;;;;;13.59;88.89;100900.64;106312;1258;61420;-84
2023/12/19 12:03:43;;;;;;;;;;;;;;;13.69;88.54;100896.48;106294;1253;73429;-84
2023/12/19 12:06:10;;;;;;;;;;;;;;;13.64;88.94;100885.58;106585;1253;68605;-84
2023/12/19 12:08:39;;;;;;;;;;;;;;;13.65;88.80;100878.16;109157;1253;74220;-84
2023/12/19 12:11:13;;;;;;;;;;;;;;;13.43;90.31;100894.88;109106;1253;61510;-84
2023/12/19 12:13:59;;;;;;;;;;;;;;;13.29;92.00;100907.46;109221;1253;60621;-85
2023/12/19 12:16:36;;;;;;;;;;;;;;;13.36;91.63;100907.90;106650;1253;74613;-85
2023/12/19 12:19:11;;;;;;;;;;;;;;;13.43;90.83;100901.43;106531;1253;70433;-85
2023/12/19 12:21:51;;;;;;;;;;;;;;;13.45;90.61;100900.31;106405;1253;72533;-85
2023/12/19 12:24:25;;;;;;;;;;;;;;;13.45;90.44;100896.73;106263;1254;62527;-85
2023/12/19 12:27:17;;;;;;;;;;;;;;;13.49;90.20;100896.70;106201;1254;61209;-85
2023/12/19 12:29:45;;;;;;;;;;;;;;;13.60;89.49;100898.70;106337;1253;74705;-85
2023/12/19 16:33:53;;;;;;;;;;;;;;;12.11;95.13;100726.23;106522;1253;61901;-85
2023/12/19 16:36:21;;;;;;;;;;;;;;;12.08;95.99;100727.61;106548;1253;75519;-87
2023/12/19 16:38:50;;;;;;;;;;;;;;;12.10;95.99;100721.68;106377;1256;68374;-85
2023/12/19 16:41:21;;;;;;;;;;;;;;;12.21;95.12;100719.53;106293;1254;74355;-87
2023/12/19 16:43:56;;;;;;;;;;;;;;;12.18;94.85;100709.59;106679;1254;61266;-86
2023/12/19 16:46:30;;;;;;;;;;;;;;;12.10;95.24;100703.49;106245;1253;61863;-86
2023/12/19 16:49:20;;;;;;;;;;;;;;;11.83;96.95;100693.11;106458;1253;75786;-86
2023/12/19 16:51:48;;;;;;;;;;;;;;;11.63;98.40;100681.04;106244;1256;70616;-87
2023/12/19 16:54:23;;;;;;;;;;;;;;;11.66;98.47;100679.71;106276;1256;74980;-86
2023/12/19 16:57:02;;;;;;;;;;;;;;;11.73;98.02;100669.06;106375;1254;62198;-86
2023/12/19 16:59:36;;;;;;;;;;;;;;;11.77;97.36;100666.58;106316;1253;61475;-86
2023/12/19 17:02:04;;;;;;;;;;;;;;;11.80;97.06;100679.70;106200;1253;77328;-85
2023/12/19 17:04:38;;;;;;;;;;;;;;;11.84;96.97;100679.14;106187;1253;69877;-86
2023/12/19 17:07:18;;;;;;;;;;;;;;;11.83;97.22;100682.55;106169;1256;73390;-86
2023/12/19 17:09:52;;;;;;;;;;;;;;;11.94;96.69;100683.71;106145;1258;61284;-85
2023/12/19 17:12:26;;;;;;;;;;;;;;;11.95;96.56;100673.84;106321;1253;61312;-85
2023/12/19 17:15:06;;;;;;;;;;;;;;;12.02;96.64;100666.84;106138;1256;76993;-84
2023/12/19 17:17:46;;;;;;;;;;;;;;;12.15;96.09;100672.11;106355;1256;69209;-84
2023/12/19 17:20:21;;;;;;;;;;;;;;;12.08;96.93;100675.78;106216;1260;73604;-85
2023/12/19 17:22:55;;;;;;;;;;;;;;;12.09;97.57;100672.33;106485;1254;61222;-84
2023/12/19 17:25:35;;;;;;;;;;;;;;;12.14;97.25;100673.62;106226;1253;61335;-85
2023/12/19 17:28:15;;;;;;;;;;;;;;;12.18;97.46;100678.73;106226;1253;74414;-85
2023/12/19 17:30:55;;;;;;;;;;;;;;;12.23;97.42;100676.61;106516;1258;69543;-86
2023/12/19 17:33:35;;;;;;;;;;;;;;;12.42;96.15;100668.52;106388;1256;75062;-86
2023/12/19 17:36:14;;;;;;;;;;;;;;;12.63;94.36;100667.25;106497;1258;61738;-86
2023/12/19 17:38:54;;;;;;;;;;;;;;;12.68;93.66;100661.89;106177;1258;61242;-86
2023/12/19 17:41:34;;;;;;;;;;;;;;;12.68;93.44;100652.63;106175;1254;76883;-86
2023/12/19 17:44:13;;;;;;;;;;;;;;;12.68;93.46;100652.35;106261;1253;70174;-85
2023/12/19 17:46:46;;;;;;;;;;;;;;;12.71;93.32;100651.77;106223;1261;73657;-85
2023/12/19 17:49:20;;;;;;;;;;;;;;;12.80;92.87;100645.60;106139;1258;61459;-85
2023/12/19 17:51:54;;;;;;;;;;;;;;;12.87;92.45;100650.25;106780;1253;61777;-85
2023/12/19 17:54:28;;;;;;;;;;;;;;;13.00;91.61;100653.30;106336;1258;76880;-85
2023/12/19 17:57:01;;;;;;;;;;;;;;;13.07;91.14;100662.27;107237;1253;69240;-84
2023/12/19 17:59:38;;;;;;;;;;;;;;;13.17;90.32;100661.34;106133;1258;72238;-84
2023/12/19 18:02:12;;;;;;;;;;;;;;;13.33;88.78;100650.54;106264;1253;63844;-84
2023/12/19 18:04:45;;;;;;;;;;;;;;;13.11;89.52;100647.91;106183;1253;61373;-84
2023/12/19 18:07:19;;;;;;;;;;;;;;;12.93;90.60;100656.77;106152;1254;74835;-84
2023/12/19 18:09:53;;;;;;;;;;;;;;;13.00;90.01;100652.91;106458;1259;67344;-84
2023/12/19 18:12:29;;;;;;;;;;;;;;;13.25;87.99;100659.77;106206;1253;74846;-84
2023/12/19 18:15:03;;;;;;;;;;;;;;;13.31;86.82;100659.89;106218;1256;61351;-84
2023/12/19 18:17:37;;;;;;;;;;;;;;;13.24;87.21;100655.13;106387;1258;61191;-84
2023/12/19 18:20:14;;;;;;;;;;;;;;;13.20;87.21;100649.68;106403;1254;75687;-84
2023/12/19 18:22:51;;;;;;;;;;;;;;;13.40;85.28;100637.61;106148;1253;71100;-83
2023/12/19 18:25:24;;;;;;;;;;;;;;;13.29;85.35;100636.58;106465;1253;75071;-84
2023/12/19 18:27:58;;;;;;;;;;;;;;;13.31;84.83;100636.17;106106;1256;61356;-83
2023/12/19 18:30:32;;;;;;;;;;;;;;;13.42;83.60;100633.58;106430;1253;61334;-85
2023/12/19 18:33:06;;;;;;;;;;;;;;;13.48;82.76;100636.20;106343;1258;75627;-85
2023/12/19 18:35:41;;;;;;;;;;;;;;;13.60;81.53;100633.73;106306;1258;68495;-85
2023/12/19 18:38:14;;;;;;;;;;;;;;;13.55;81.26;100638.17;106338;1258;72299;-85
2023/12/19 18:40:48;;;;;;;;;;;;;;;13.23;83.63;100638.67;106543;1258;64135;-85
2023/12/19 18:43:22;;;;;;;;;;;;;;;13.15;84.56;100640.63;106347;1258;61111;-85
2023/12/19 18:45:56;;;;;;;;;;;;;;;13.12;84.87;100639.50;106246;1258;75770;-85
2023/12/19 18:48:35;;;;;;;;;;;;;;;12.95;86.21;100636.29;106195;1258;70085;-85
2023/12/19 18:51:17;;;;;;;;;;;;;;;12.86;87.31;100642.05;106112;1253;74469;-85
2023/12/19 18:53:57;;;;;;;;;;;;;;;12.93;87.41;100644.15;106311;1253;61882;-85
2023/12/19 18:56:36;;;;;;;;;;;;;;;13.00;86.97;100643.20;106224;1256;61327;-85
2023/12/19 18:59:19;;;;;;;;;;;;;;;13.20;85.52;100649.30;106641;1257;75243;-85
2023/12/19 19:01:59;;;;;;;;;;;;;;;13.49;83.26;100645.56;106312;1255;70663;-85
2023/12/19 19:04:38;;;;;;;;;;;;;;;13.37;83.54;100651.42;106360;1256;72240;-85
2023/12/19 19:07:13;;;;;;;;;;;;;;;13.42;83.59;100649.50;106219;1258;62823;-85
2023/12/19 19:09:53;;;;;;;;;;;;;;;13.72;81.91;100646.84;106135;1254;61620;-85
2023/12/19 19:12:27;;;;;;;;;;;;;;;14.36;76.44;100644.75;106178;1253;75863;-85
2023/12/19 19:14:55;;;;;;;;;;;;;;;14.38;75.62;100642.57;106262;1258;71785;-85
2023/12/19 19:17:30;;;;;;;;;;;;;;;13.93;77.94;100642.82;106313;1258;72129;-85
2023/12/19 19:20:04;;;;;;;;;;;;;;;13.90;78.97;100641.06;106580;1254;62415;-85
2023/12/19 19:22:37;;;;;;;;;;;;;;;14.08;77.76;100639.59;106182;1258;62244;-85
2023/12/19 19:25:09;;;;;;;;;;;;;;;14.28;75.81;100638.83;106141;1259;75529;-85
2023/12/19 19:27:48;;;;;;;;;;;;;;;14.18;75.67;100635.31;106314;1253;68221;-85
2023/12/19 19:30:29;;;;;;;;;;;;;;;14.05;76.43;100635.18;106122;1256;74138;-85
2023/12/19 19:33:03;;;;;;;;;;;;;;;14.12;75.94;100631.22;106305;1258;62895;-85
2023/12/19 19:35:37;;;;;;;;;;;;;;;14.35;74.27;100627.83;106417;1258;61257;-85
2023/12/19 19:38:06;;;;;;;;;;;;;;;14.54;72.36;100624.11;106234;1253;76726;-85
2023/12/19 19:40:40;;;;;;;;;;;;;;;14.65;70.62;100619.64;106290;1254;68650;-86
2023/12/19 19:43:17;;;;;;;;;;;;;;;14.38;71.80;100614.48;106136;1255;73046;-85
2023/12/19 19:45:52;;;;;;;;;;;;;;;14.61;70.39;100602.55;106164;1258;62578;-85
2023/12/19 19:48:26;;;;;;;;;;;;;;;14.78;68.86;100589.49;106341;1253;61112;-85
2023/12/19 19:51:00;;;;;;;;;;;;;;;14.83;67.84;100586.30;106217;1256;76614;-85
2023/12/19 19:53:28;;;;;;;;;;;;;;;14.69;67.79;100588.34;106409;1254;70046;-85
2023/12/19 19:56:02;;;;;;;;;;;;;;;14.61;67.85;100587.87;106425;1259;73141;-85
2023/12/19 19:58:36;;;;;;;;;;;;;;;14.78;66.67;100581.66;106600;1258;63803;-85
2023/12/19 20:01:10;;;;;;;;;;;;;;;15.20;64.03;100580.29;106326;1257;62148;-85
2023/12/19 20:03:39;;;;;;;;;;;;;;;15.11;63.42;100581.68;106414;1253;76352;-86
2023/12/19 20:06:13;;;;;;;;;;;;;;;15.17;63.17;100581.13;106688;1254;70750;-84
2023/12/19 20:08:47;;;;;;;;;;;;;;;15.17;62.61;100574.52;106583;1253;74912;-84
2023/12/19 20:11:20;;;;;;;;;;;;;;;15.31;61.72;100575.25;106285;1253;61364;-84
2023/12/19 20:13:48;;;;;;;;;;;;;;;15.42;61.04;100577.95;106442;1253;61249;-85
2023/12/19 20:16:24;;;;;;;;;;;;;;;15.35;60.81;100581.13;106678;1256;76352;-85
2023/12/19 20:18:57;;;;;;;;;;;;;;;15.21;61.09;100578.77;106477;1254;71567;-84
2023/12/19 20:21:31;;;;;;;;;;;;;;;15.66;59.52;100579.22;106398;1253;233241;-84
2023/12/19 20:23:59;;;;;;;;;;;;;;;16.19;56.54;100573.02;106197;1256;61477;-85
2023/12/19 20:26:40;;;;;;;;;;;;;;;14.43;63.21;100579.81;106271;1253;61757;-84
2023/12/19 20:29:22;;;;;;;;;;;;;;;15.13;61.02;100574.05;106411;1253;75933;-84
